sensor_id;sensor_type;location;lat;lon;timestamp;P1;durP1;ratioP1;P2;durP2;ratioP2
43823;SDS011;29470;53.550;9.926;2023-04-03T00:01:39;7.18;;;2.03;;
43823;SDS011;29470;53.550;9.926;2023-04-03T00:06:42;5.50;;;1.90;;
43823;SDS011;29470;53.550;9.926;2023-04-03T00:11:45;6.53;;;2.22;;
43823;SDS011;29470;53.550;9.926;2023-04-03T00:16:49;4.18;;;1.80;;
43823;SDS011;29470;53.550;9.926;2023-04-03T00:21:52;9.98;;;2.03;;
43823;SDS011;29470;53.550;9.926;2023-04-03T00:26:55;7.38;;;2.17;;
43823;SDS011;29470;53.550;9.926;2023-04-03T00:31:59;5.88;;;1.90;;
43823;SDS011;29470;53.550;9.926;2023-04-03T00:37:02;5.65;;;2.00;;
43823;SDS011;29470;53.550;9.926;2023-04-03T00:42:06;8.18;;;1.70;;
43823;SDS011;29470;53.550;9.926;2023-04-03T00:47:10;7.13;;;1.58;;
43823;SDS011;29470;53.550;9.926;2023-04-03T00:52:18;6.30;;;1.75;;
43823;SDS011;29470;53.550;9.926;2023-04-03T00:57:24;4.15;;;1.90;;
43823;SDS011;29470;53.550;9.926;2023-04-03T01:02:30;5.45;;;1.77;;
43823;SDS011;29470;53.550;9.926;2023-04-03T01:07:33;5.10;;;2.03;;
43823;SDS011;29470;53.550;9.926;2023-04-03T01:12:38;6.90;;;2.72;;
43823;SDS011;29470;53.550;9.926;2023-04-03T01:17:50;5.10;;;1.92;;
43823;SDS011;29470;53.550;9.926;2023-04-03T01:22:55;7.28;;;2.20;;
43823;SDS011;29470;53.550;9.926;2023-04-03T01:28:01;5.23;;;1.63;;
43823;SDS011;29470;53.550;9.926;2023-04-03T01:33:05;7.07;;;2.42;;
43823;SDS011;29470;53.550;9.926;2023-04-03T01:38:08;7.93;;;2.70;;
43823;SDS011;29470;53.550;9.926;2023-04-03T01:43:11;5.10;;;1.85;;
43823;SDS011;29470;53.550;9.926;2023-04-03T01:48:17;5.97;;;1.98;;
43823;SDS011;29470;53.550;9.926;2023-04-03T01:53:20;5.00;;;2.20;;
43823;SDS011;29470;53.550;9.926;2023-04-03T01:58:23;5.35;;;2.13;;
43823;SDS011;29470;53.550;9.926;2023-04-03T02:03:28;4.40;;;1.92;;
43823;SDS011;29470;53.550;9.926;2023-04-03T02:08:32;5.50;;;2.10;;
43823;SDS011;29470;53.550;9.926;2023-04-03T02:13:35;6.40;;;2.33;;
43823;SDS011;29470;53.550;9.926;2023-04-03T02:18:39;4.15;;;1.75;;
43823;SDS011;29470;53.550;9.926;2023-04-03T02:23:42;5.47;;;2.38;;
43823;SDS011;29470;53.550;9.926;2023-04-03T02:28:46;8.15;;;2.47;;
43823;SDS011;29470;53.550;9.926;2023-04-03T02:33:50;5.57;;;2.40;;
43823;SDS011;29470;53.550;9.926;2023-04-03T02:38:53;6.15;;;2.30;;
43823;SDS011;29470;53.550;9.926;2023-04-03T02:43:56;6.32;;;2.92;;
43823;SDS011;29470;53.550;9.926;2023-04-03T02:49:00;7.07;;;2.40;;
43823;SDS011;29470;53.550;9.926;2023-04-03T02:54:04;7.18;;;2.78;;
43823;SDS011;29470;53.550;9.926;2023-04-03T02:59:09;8.85;;;2.70;;
43823;SDS011;29470;53.550;9.926;2023-04-03T03:04:15;7.32;;;3.10;;
43823;SDS011;29470;53.550;9.926;2023-04-03T03:09:18;11.10;;;3.10;;
43823;SDS011;29470;53.550;9.926;2023-04-03T03:14:21;6.60;;;2.97;;
43823;SDS011;29470;53.550;9.926;2023-04-03T03:19:25;12.50;;;2.90;;
43823;SDS011;29470;53.550;9.926;2023-04-03T03:24:28;10.95;;;4.15;;
43823;SDS011;29470;53.550;9.926;2023-04-03T03:29:30;9.07;;;2.70;;
43823;SDS011;29470;53.550;9.926;2023-04-03T03:34:35;8.35;;;2.63;;
43823;SDS011;29470;53.550;9.926;2023-04-03T03:39:37;8.93;;;2.55;;
43823;SDS011;29470;53.550;9.926;2023-04-03T03:44:40;8.07;;;2.90;;
43823;SDS011;29470;53.550;9.926;2023-04-03T03:49:45;7.75;;;2.97;;
43823;SDS011;29470;53.550;9.926;2023-04-03T03:54:49;8.77;;;3.13;;
43823;SDS011;29470;53.550;9.926;2023-04-03T03:59:52;8.02;;;2.65;;
43823;SDS011;29470;53.550;9.926;2023-04-03T04:04:57;8.02;;;2.67;;
43823;SDS011;29470;53.550;9.926;2023-04-03T04:10:00;7.22;;;2.80;;
43823;SDS011;29470;53.550;9.926;2023-04-03T04:15:04;6.78;;;2.65;;
43823;SDS011;29470;53.550;9.926;2023-04-03T04:20:09;9.43;;;3.25;;
43823;SDS011;29470;53.550;9.926;2023-04-03T04:25:14;10.32;;;3.13;;
43823;SDS011;29470;53.550;9.926;2023-04-03T04:30:17;8.02;;;3.05;;
43823;SDS011;29470;53.550;9.926;2023-04-03T04:35:24;9.15;;;2.92;;
43823;SDS011;29470;53.550;9.926;2023-04-03T04:40:27;8.73;;;3.30;;
43823;SDS011;29470;53.550;9.926;2023-04-03T04:45:30;6.97;;;2.88;;
43823;SDS011;29470;53.550;9.926;2023-04-03T04:50:34;7.78;;;3.20;;
43823;SDS011;29470;53.550;9.926;2023-04-03T04:55:37;6.00;;;3.03;;
43823;SDS011;29470;53.550;9.926;2023-04-03T05:00:41;12.45;;;3.45;;
43823;SDS011;29470;53.550;9.926;2023-04-03T05:05:46;9.18;;;3.33;;
43823;SDS011;29470;53.550;9.926;2023-04-03T05:10:50;6.05;;;2.70;;
43823;SDS011;29470;53.550;9.926;2023-04-03T05:15:57;8.48;;;3.30;;
43823;SDS011;29470;53.550;9.926;2023-04-03T05:21:03;8.40;;;3.60;;
43823;SDS011;29470;53.550;9.926;2023-04-03T05:26:07;9.32;;;3.20;;
43823;SDS011;29470;53.550;9.926;2023-04-03T05:31:10;10.55;;;3.55;;
43823;SDS011;29470;53.550;9.926;2023-04-03T05:36:14;8.70;;;4.07;;
43823;SDS011;29470;53.550;9.926;2023-04-03T05:41:20;9.87;;;4.40;;
43823;SDS011;29470;53.550;9.926;2023-04-03T05:46:24;13.55;;;3.38;;
43823;SDS011;29470;53.550;9.926;2023-04-03T05:51:32;11.45;;;3.25;;
43823;SDS011;29470;53.550;9.926;2023-04-03T05:56:52;11.55;;;3.33;;
43823;SDS011;29470;53.550;9.926;2023-04-03T06:01:56;7.07;;;2.97;;
43823;SDS011;29470;53.550;9.926;2023-04-03T06:07:00;7.15;;;3.30;;
43823;SDS011;29470;53.550;9.926;2023-04-03T06:12:03;5.50;;;2.35;;
43823;SDS011;29470;53.550;9.926;2023-04-03T06:17:06;6.35;;;2.10;;
43823;SDS011;29470;53.550;9.926;2023-04-03T06:22:11;7.75;;;2.20;;
43823;SDS011;29470;53.550;9.926;2023-04-03T06:27:14;3.92;;;2.05;;
43823;SDS011;29470;53.550;9.926;2023-04-03T06:32:18;8.27;;;2.33;;
43823;SDS011;29470;53.550;9.926;2023-04-03T06:37:22;5.15;;;2.38;;
43823;SDS011;29470;53.550;9.926;2023-04-03T06:42:27;5.88;;;2.05;;
43823;SDS011;29470;53.550;9.926;2023-04-03T06:47:40;7.13;;;1.90;;
43823;SDS011;29470;53.550;9.926;2023-04-03T06:52:45;5.43;;;2.25;;
43823;SDS011;29470;53.550;9.926;2023-04-03T06:57:47;6.07;;;1.70;;
43823;SDS011;29470;53.550;9.926;2023-04-03T07:02:50;3.53;;;1.80;;
43823;SDS011;29470;53.550;9.926;2023-04-03T07:07:55;6.55;;;1.80;;
43823;SDS011;29470;53.550;9.926;2023-04-03T07:12:57;4.25;;;1.55;;
43823;SDS011;29470;53.550;9.926;2023-04-03T07:18:00;5.32;;;1.77;;
43823;SDS011;29470;53.550;9.926;2023-04-03T07:23:04;3.83;;;1.67;;
43823;SDS011;29470;53.550;9.926;2023-04-03T07:28:07;5.15;;;1.88;;
43823;SDS011;29470;53.550;9.926;2023-04-03T07:33:10;3.05;;;1.35;;
43823;SDS011;29470;53.550;9.926;2023-04-03T07:38:15;3.78;;;1.27;;
43823;SDS011;29470;53.550;9.926;2023-04-03T07:43:20;2.47;;;0.82;;
43823;SDS011;29470;53.550;9.926;2023-04-03T07:48:25;3.85;;;1.00;;
43823;SDS011;29470;53.550;9.926;2023-04-03T07:53:30;5.05;;;1.23;;
43823;SDS011;29470;53.550;9.926;2023-04-03T07:58:33;4.10;;;1.00;;
43823;SDS011;29470;53.550;9.926;2023-04-03T08:03:36;3.22;;;1.20;;
43823;SDS011;29470;53.550;9.926;2023-04-03T08:08:42;3.63;;;1.23;;
43823;SDS011;29470;53.550;9.926;2023-04-03T08:13:45;4.30;;;1.10;;
43823;SDS011;29470;53.550;9.926;2023-04-03T08:18:48;3.00;;;1.20;;
43823;SDS011;29470;53.550;9.926;2023-04-03T08:23:53;3.53;;;1.30;;
43823;SDS011;29470;53.550;9.926;2023-04-03T08:28:55;5.57;;;1.10;;
43823;SDS011;29470;53.550;9.926;2023-04-03T08:33:58;5.78;;;1.05;;
43823;SDS011;29470;53.550;9.926;2023-04-03T08:39:02;4.18;;;1.20;;
43823;SDS011;29470;53.550;9.926;2023-04-03T08:44:10;4.10;;;1.40;;
43823;SDS011;29470;53.550;9.926;2023-04-03T08:49:20;4.97;;;1.20;;
43823;SDS011;29470;53.550;9.926;2023-04-03T08:54:29;2.92;;;1.00;;
43823;SDS011;29470;53.550;9.926;2023-04-03T08:59:36;3.42;;;1.05;;
43823;SDS011;29470;53.550;9.926;2023-04-03T09:04:41;3.70;;;0.70;;
43823;SDS011;29470;53.550;9.926;2023-04-03T09:09:46;3.00;;;0.93;;
43823;SDS011;29470;53.550;9.926;2023-04-03T09:14:54;4.05;;;1.13;;
43823;SDS011;29470;53.550;9.926;2023-04-03T09:20:06;4.10;;;1.20;;
43823;SDS011;29470;53.550;9.926;2023-04-03T09:25:23;3.97;;;1.00;;
43823;SDS011;29470;53.550;9.926;2023-04-03T09:30:31;3.50;;;1.10;;
43823;SDS011;29470;53.550;9.926;2023-04-03T09:35:35;3.47;;;1.10;;
43823;SDS011;29470;53.550;9.926;2023-04-03T09:40:50;3.63;;;0.88;;
43823;SDS011;29470;53.550;9.926;2023-04-03T09:51:34;5.72;;;0.90;;
43823;SDS011;29470;53.550;9.926;2023-04-03T09:56:39;2.80;;;0.63;;
43823;SDS011;29470;53.550;9.926;2023-04-03T10:01:42;4.38;;;0.90;;
43823;SDS011;29470;53.550;9.926;2023-04-03T10:06:58;2.97;;;0.90;;
43823;SDS011;29470;53.550;9.926;2023-04-03T10:12:03;3.63;;;1.17;;
43823;SDS011;29470;53.550;9.926;2023-04-03T10:17:13;2.42;;;0.80;;
43823;SDS011;29470;53.550;9.926;2023-04-03T10:22:23;4.30;;;1.17;;
43823;SDS011;29470;53.550;9.926;2023-04-03T10:27:37;3.13;;;0.82;;
43823;SDS011;29470;53.550;9.926;2023-04-03T10:32:53;2.55;;;0.88;;
43823;SDS011;29470;53.550;9.926;2023-04-03T10:38:01;4.82;;;0.95;;
43823;SDS011;29470;53.550;9.926;2023-04-03T10:43:15;3.53;;;0.93;;
43823;SDS011;29470;53.550;9.926;2023-04-03T10:48:28;3.67;;;0.90;;
43823;SDS011;29470;53.550;9.926;2023-04-03T10:53:39;1.35;;;0.80;;
43823;SDS011;29470;53.550;9.926;2023-04-03T10:58:49;3.15;;;0.70;;
43823;SDS011;29470;53.550;9.926;2023-04-03T11:03:59;2.95;;;0.70;;
43823;SDS011;29470;53.550;9.926;2023-04-03T11:09:05;2.40;;;0.80;;
43823;SDS011;29470;53.550;9.926;2023-04-03T11:14:17;2.47;;;1.25;;
43823;SDS011;29470;53.550;9.926;2023-04-03T11:19:28;4.25;;;1.00;;
43823;SDS011;29470;53.550;9.926;2023-04-03T11:24:38;1.92;;;1.00;;
43823;SDS011;29470;53.550;9.926;2023-04-03T11:29:45;2.80;;;0.90;;
43823;SDS011;29470;53.550;9.926;2023-04-03T11:34:50;2.97;;;0.85;;
43823;SDS011;29470;53.550;9.926;2023-04-03T11:39:58;3.72;;;1.10;;
43823;SDS011;29470;53.550;9.926;2023-04-03T11:45:24;3.88;;;1.13;;
43823;SDS011;29470;53.550;9.926;2023-04-03T11:50:39;4.78;;;1.20;;
43823;SDS011;29470;53.550;9.926;2023-04-03T12:01:07;3.30;;;0.90;;
43823;SDS011;29470;53.550;9.926;2023-04-03T12:11:59;3.40;;;1.27;;
43823;SDS011;29470;53.550;9.926;2023-04-03T12:17:12;4.10;;;1.10;;
43823;SDS011;29470;53.550;9.926;2023-04-03T12:22:24;5.68;;;1.00;;
43823;SDS011;29470;53.550;9.926;2023-04-03T12:27:28;3.72;;;1.55;;
43823;SDS011;29470;53.550;9.926;2023-04-03T12:43:26;3.63;;;1.30;;
43823;SDS011;29470;53.550;9.926;2023-04-03T12:48:48;2.90;;;1.10;;
43823;SDS011;29470;53.550;9.926;2023-04-03T12:53:52;4.80;;;1.40;;
43823;SDS011;29470;53.550;9.926;2023-04-03T12:59:13;3.15;;;1.15;;
43823;SDS011;29470;53.550;9.926;2023-04-03T13:04:19;2.85;;;1.08;;
43823;SDS011;29470;53.550;9.926;2023-04-03T13:09:23;3.55;;;0.80;;
43823;SDS011;29470;53.550;9.926;2023-04-03T13:14:29;1.58;;;0.90;;
43823;SDS011;29470;53.550;9.926;2023-04-03T13:19:33;3.92;;;1.10;;
43823;SDS011;29470;53.550;9.926;2023-04-03T13:24:37;3.33;;;0.90;;
43823;SDS011;29470;53.550;9.926;2023-04-03T13:29:41;5.70;;;1.40;;
43823;SDS011;29470;53.550;9.926;2023-04-03T13:34:46;2.13;;;0.93;;
43823;SDS011;29470;53.550;9.926;2023-04-03T13:39:57;1.67;;;0.80;;
43823;SDS011;29470;53.550;9.926;2023-04-03T13:45:17;3.28;;;1.60;;
43823;SDS011;29470;53.550;9.926;2023-04-03T13:50:24;2.15;;;0.90;;
43823;SDS011;29470;53.550;9.926;2023-04-03T13:55:30;2.73;;;1.10;;
43823;SDS011;29470;53.550;9.926;2023-04-03T14:00:36;2.25;;;0.90;;
43823;SDS011;29470;53.550;9.926;2023-04-03T14:05:42;3.67;;;1.00;;
43823;SDS011;29470;53.550;9.926;2023-04-03T14:10:46;2.45;;;0.80;;
43823;SDS011;29470;53.550;9.926;2023-04-03T14:15:50;3.47;;;1.20;;
43823;SDS011;29470;53.550;9.926;2023-04-03T14:20:57;2.72;;;1.10;;
43823;SDS011;29470;53.550;9.926;2023-04-03T14:26:00;4.32;;;1.00;;
43823;SDS011;29470;53.550;9.926;2023-04-03T14:31:03;3.10;;;0.93;;
43823;SDS011;29470;53.550;9.926;2023-04-03T14:36:12;4.03;;;1.05;;
43823;SDS011;29470;53.550;9.926;2023-04-03T14:41:17;4.40;;;1.05;;
43823;SDS011;29470;53.550;9.926;2023-04-03T14:46:22;4.10;;;1.38;;
43823;SDS011;29470;53.550;9.926;2023-04-03T14:51:53;3.97;;;1.00;;
43823;SDS011;29470;53.550;9.926;2023-04-03T14:56:56;3.33;;;1.02;;
43823;SDS011;29470;53.550;9.926;2023-04-03T15:02:01;3.25;;;1.00;;
43823;SDS011;29470;53.550;9.926;2023-04-03T15:07:09;2.22;;;1.00;;
43823;SDS011;29470;53.550;9.926;2023-04-03T15:12:12;4.32;;;1.33;;
43823;SDS011;29470;53.550;9.926;2023-04-03T15:17:16;2.95;;;1.10;;
43823;SDS011;29470;53.550;9.926;2023-04-03T15:22:24;2.60;;;1.10;;
43823;SDS011;29470;53.550;9.926;2023-04-03T15:27:27;1.95;;;0.90;;
43823;SDS011;29470;53.550;9.926;2023-04-03T15:32:30;4.13;;;1.58;;
43823;SDS011;29470;53.550;9.926;2023-04-03T15:37:34;3.80;;;1.23;;
43823;SDS011;29470;53.550;9.926;2023-04-03T15:42:37;2.72;;;1.30;;
43823;SDS011;29470;53.550;9.926;2023-04-03T15:47:41;4.80;;;1.25;;
43823;SDS011;29470;53.550;9.926;2023-04-03T15:52:45;4.60;;;1.33;;
43823;SDS011;29470;53.550;9.926;2023-04-03T15:57:48;5.00;;;1.92;;
43823;SDS011;29470;53.550;9.926;2023-04-03T16:02:52;3.00;;;1.17;;
43823;SDS011;29470;53.550;9.926;2023-04-03T16:08:00;5.75;;;1.35;;
43823;SDS011;29470;53.550;9.926;2023-04-03T16:13:03;5.32;;;1.20;;
43823;SDS011;29470;53.550;9.926;2023-04-03T16:18:07;3.85;;;1.20;;
43823;SDS011;29470;53.550;9.926;2023-04-03T16:23:12;5.05;;;1.73;;
43823;SDS011;29470;53.550;9.926;2023-04-03T16:28:15;4.18;;;1.40;;
43823;SDS011;29470;53.550;9.926;2023-04-03T16:33:19;4.93;;;1.58;;
43823;SDS011;29470;53.550;9.926;2023-04-03T16:38:24;6.55;;;1.75;;
43823;SDS011;29470;53.550;9.926;2023-04-03T16:43:27;4.15;;;1.60;;
43823;SDS011;29470;53.550;9.926;2023-04-03T16:48:30;4.63;;;1.23;;
43823;SDS011;29470;53.550;9.926;2023-04-03T16:53:35;7.05;;;1.55;;
43823;SDS011;29470;53.550;9.926;2023-04-03T16:58:38;7.22;;;2.80;;
43823;SDS011;29470;53.550;9.926;2023-04-03T17:03:40;8.32;;;2.60;;
43823;SDS011;29470;53.550;9.926;2023-04-03T17:08:45;3.63;;;2.08;;
43823;SDS011;29470;53.550;9.926;2023-04-03T17:14:02;6.30;;;1.90;;
43823;SDS011;29470;53.550;9.926;2023-04-03T17:19:05;4.68;;;1.70;;
43823;SDS011;29470;53.550;9.926;2023-04-03T17:24:10;5.10;;;2.13;;
43823;SDS011;29470;53.550;9.926;2023-04-03T17:29:15;7.60;;;2.50;;
43823;SDS011;29470;53.550;9.926;2023-04-03T17:34:18;4.70;;;1.67;;
43823;SDS011;29470;53.550;9.926;2023-04-03T17:39:23;6.88;;;2.08;;
43823;SDS011;29470;53.550;9.926;2023-04-03T17:44:26;6.70;;;1.80;;
43823;SDS011;29470;53.550;9.926;2023-04-03T17:49:29;5.63;;;2.03;;
43823;SDS011;29470;53.550;9.926;2023-04-03T17:54:35;9.80;;;3.20;;
43823;SDS011;29470;53.550;9.926;2023-04-03T17:59:37;10.80;;;3.38;;
43823;SDS011;29470;53.550;9.926;2023-04-03T18:04:41;6.15;;;2.20;;
43823;SDS011;29470;53.550;9.926;2023-04-03T18:09:45;8.80;;;2.63;;
43823;SDS011;29470;53.550;9.926;2023-04-03T18:14:50;9.35;;;3.13;;
43823;SDS011;29470;53.550;9.926;2023-04-03T18:19:53;10.98;;;3.90;;
43823;SDS011;29470;53.550;9.926;2023-04-03T18:24:58;8.60;;;2.65;;
43823;SDS011;29470;53.550;9.926;2023-04-03T18:30:04;7.18;;;2.85;;
43823;SDS011;29470;53.550;9.926;2023-04-03T18:35:12;5.45;;;1.80;;
43823;SDS011;29470;53.550;9.926;2023-04-03T18:40:17;5.93;;;2.35;;
43823;SDS011;29470;53.550;9.926;2023-04-03T18:45:20;12.02;;;4.25;;
43823;SDS011;29470;53.550;9.926;2023-04-03T18:50:24;6.10;;;1.88;;
43823;SDS011;29470;53.550;9.926;2023-04-03T18:55:29;6.88;;;2.95;;
43823;SDS011;29470;53.550;9.926;2023-04-03T19:00:32;11.25;;;4.43;;
43823;SDS011;29470;53.550;9.926;2023-04-03T19:05:37;4.93;;;2.10;;
43823;SDS011;29470;53.550;9.926;2023-04-03T19:10:45;6.63;;;2.15;;
43823;SDS011;29470;53.550;9.926;2023-04-03T19:16:28;4.97;;;1.50;;
43823;SDS011;29470;53.550;9.926;2023-04-03T19:21:31;6.63;;;1.55;;
43823;SDS011;29470;53.550;9.926;2023-04-03T19:26:37;8.80;;;2.10;;
43823;SDS011;29470;53.550;9.926;2023-04-03T19:31:40;5.18;;;1.65;;
43823;SDS011;29470;53.550;9.926;2023-04-03T19:36:43;4.65;;;1.50;;
43823;SDS011;29470;53.550;9.926;2023-04-03T19:41:49;4.50;;;1.90;;
43823;SDS011;29470;53.550;9.926;2023-04-03T19:46:52;4.63;;;1.85;;
43823;SDS011;29470;53.550;9.926;2023-04-03T20:04:13;6.00;;;1.73;;
43823;SDS011;29470;53.550;9.926;2023-04-03T20:09:16;3.38;;;1.63;;
43823;SDS011;29470;53.550;9.926;2023-04-03T20:14:19;3.38;;;1.35;;
43823;SDS011;29470;53.550;9.926;2023-04-03T20:19:23;3.90;;;1.35;;
43823;SDS011;29470;53.550;9.926;2023-04-03T20:24:29;4.55;;;1.80;;
43823;SDS011;29470;53.550;9.926;2023-04-03T20:29:34;4.13;;;1.63;;
43823;SDS011;29470;53.550;9.926;2023-04-03T20:34:39;5.15;;;1.80;;
43823;SDS011;29470;53.550;9.926;2023-04-03T20:39:44;5.50;;;2.58;;
43823;SDS011;29470;53.550;9.926;2023-04-03T20:44:47;5.60;;;2.80;;
43823;SDS011;29470;53.550;9.926;2023-04-03T20:49:51;6.95;;;2.38;;
43823;SDS011;29470;53.550;9.926;2023-04-03T20:54:54;7.07;;;2.13;;
43823;SDS011;29470;53.550;9.926;2023-04-03T20:59:58;5.05;;;1.55;;
43823;SDS011;29470;53.550;9.926;2023-04-03T21:05:03;7.35;;;1.90;;
43823;SDS011;29470;53.550;9.926;2023-04-03T21:20:51;5.30;;;1.30;;
43823;SDS011;29470;53.550;9.926;2023-04-03T21:25:54;6.65;;;1.67;;
43823;SDS011;29470;53.550;9.926;2023-04-03T21:30:57;5.15;;;1.73;;
43823;SDS011;29470;53.550;9.926;2023-04-03T21:36:01;6.10;;;2.28;;
43823;SDS011;29470;53.550;9.926;2023-04-03T21:41:04;7.13;;;1.88;;
43823;SDS011;29470;53.550;9.926;2023-04-03T21:46:07;5.28;;;1.90;;
43823;SDS011;29470;53.550;9.926;2023-04-03T21:51:11;5.18;;;1.60;;
43823;SDS011;29470;53.550;9.926;2023-04-03T21:56:14;6.95;;;1.60;;
43823;SDS011;29470;53.550;9.926;2023-04-03T22:01:17;7.43;;;1.90;;
43823;SDS011;29470;53.550;9.926;2023-04-03T22:06:23;8.65;;;2.20;;
43823;SDS011;29470;53.550;9.926;2023-04-03T22:11:26;4.88;;;2.15;;
43823;SDS011;29470;53.550;9.926;2023-04-03T22:16:29;5.40;;;1.85;;
43823;SDS011;29470;53.550;9.926;2023-04-03T22:21:33;5.82;;;1.83;;
43823;SDS011;29470;53.550;9.926;2023-04-03T22:26:36;5.93;;;1.50;;
43823;SDS011;29470;53.550;9.926;2023-04-03T22:31:40;3.17;;;1.45;;
43823;SDS011;29470;53.550;9.926;2023-04-03T22:36:45;5.78;;;1.38;;
43823;SDS011;29470;53.550;9.926;2023-04-03T22:41:48;3.72;;;1.30;;
43823;SDS011;29470;53.550;9.926;2023-04-03T22:46:52;3.83;;;1.42;;
43823;SDS011;29470;53.550;9.926;2023-04-03T22:51:56;2.88;;;1.20;;
43823;SDS011;29470;53.550;9.926;2023-04-03T22:56:59;2.78;;;1.25;;
43823;SDS011;29470;53.550;9.926;2023-04-03T23:02:02;3.78;;;1.27;;
43823;SDS011;29470;53.550;9.926;2023-04-03T23:07:06;3.70;;;1.50;;
43823;SDS011;29470;53.550;9.926;2023-04-03T23:12:12;4.05;;;1.40;;
43823;SDS011;29470;53.550;9.926;2023-04-03T23:17:14;4.18;;;1.48;;
43823;SDS011;29470;53.550;9.926;2023-04-03T23:22:18;3.47;;;1.30;;
43823;SDS011;29470;53.550;9.926;2023-04-03T23:27:21;2.15;;;0.95;;
43823;SDS011;29470;53.550;9.926;2023-04-03T23:32:24;2.72;;;1.13;;
43823;SDS011;29470;53.550;9.926;2023-04-03T23:37:29;3.10;;;1.23;;
43823;SDS011;29470;53.550;9.926;2023-04-03T23:42:31;4.30;;;1.20;;
43823;SDS011;29470;53.550;9.926;2023-04-03T23:47:34;6.35;;;1.38;;
43823;SDS011;29470;53.550;9.926;2023-04-03T23:52:39;6.03;;;1.30;;
43823;SDS011;29470;53.550;9.926;2023-04-03T23:57:42;3.78;;;1.30;;
